createdAt,value
2023-01-04T00:01:21.436Z,34.30
2023-01-04T00:03:48.974Z,34.30
2023-01-04T00:06:17.719Z,35.67
2023-01-04T00:08:45.106Z,35.97
2023-01-04T00:11:18.514Z,34.70
2023-01-04T00:13:47.851Z,36.05
2023-01-04T00:16:21.175Z,40.60
2023-01-04T00:18:50.115Z,34.47
2023-01-04T00:21:25.803Z,36.58
2023-01-04T00:23:55.737Z,39.20
2023-01-04T00:26:25.859Z,36.42
2023-01-04T00:28:55.030Z,35.28
2023-01-04T00:31:23.346Z,36.10
2023-01-04T00:33:53.731Z,37.58
2023-01-04T00:36:21.528Z,38.13
2023-01-04T00:39:07.740Z,39.38
2023-01-04T00:42:00.610Z,35.92
2023-01-04T00:44:29.901Z,37.38
2023-01-04T00:46:58.654Z,40.60
2023-01-04T00:49:27.191Z,34.13
2023-01-04T00:51:54.876Z,36.17
2023-01-04T00:54:22.652Z,35.28
2023-01-04T00:56:50.399Z,37.40
2023-01-04T00:59:20.273Z,37.22
2023-01-04T01:01:48.171Z,37.30
2023-01-04T01:04:19.304Z,34.20
2023-01-04T01:06:47.437Z,38.83
2023-01-04T01:09:15.691Z,35.42
2023-01-04T01:11:43.350Z,36.63
2023-01-04T01:14:17.139Z,35.85
2023-01-04T01:16:55.193Z,36.95
2023-01-04T01:19:24.219Z,36.67
2023-01-04T01:21:51.653Z,35.15
2023-01-04T01:24:19.962Z,35.28
2023-01-04T01:26:47.434Z,40.33
2023-01-04T01:29:14.941Z,32.70
2023-01-04T01:31:42.450Z,31.65
2023-01-04T01:34:09.936Z,31.50
2023-01-04T01:36:37.500Z,31.58
2023-01-04T01:39:05.881Z,32.30
2023-01-04T01:41:34.654Z,30.42
2023-01-04T01:44:13.961Z,32.97
2023-01-04T01:46:45.547Z,28.92
2023-01-04T01:49:28.501Z,30.45
2023-01-04T01:51:59.137Z,32.85
2023-01-04T01:54:31.286Z,28.80
2023-01-04T01:57:01.977Z,28.15
2023-01-04T01:59:31.994Z,27.75
2023-01-04T02:01:59.750Z,28.40
2023-01-04T02:04:27.400Z,27.55
2023-01-04T02:06:58.223Z,28.73
2023-01-04T02:09:26.129Z,24.02
2023-01-04T02:11:53.516Z,25.15
2023-01-04T02:14:27.471Z,24.98
2023-01-04T02:17:19.122Z,26.52
2023-01-04T02:19:46.393Z,24.77
2023-01-04T02:22:33.935Z,25.60
2023-01-04T02:25:38.889Z,24.90
2023-01-04T02:28:48.276Z,23.70
2023-01-04T02:31:18.506Z,28.92
2023-01-04T02:34:14.856Z,24.67
2023-01-04T02:37:39.317Z,23.98
2023-01-04T02:40:15.133Z,22.83
2023-01-04T02:43:12.253Z,21.30
2023-01-04T02:45:49.466Z,21.45
2023-01-04T02:48:35.556Z,19.85
2023-01-04T02:51:02.920Z,20.33
2023-01-04T02:53:35.843Z,21.05
2023-01-04T02:56:37.359Z,20.65
2023-01-04T02:59:14.164Z,21.88
2023-01-04T03:02:30.663Z,18.92
2023-01-04T03:05:42.674Z,18.33
2023-01-04T03:08:20.479Z,17.63
2023-01-04T03:11:31.532Z,17.35
2023-01-04T03:14:32.320Z,17.13
2023-01-04T03:17:12.941Z,17.90
2023-01-04T03:19:51.568Z,16.92
2023-01-04T03:22:42.726Z,16.35
2023-01-04T03:25:31.833Z,15.85
2023-01-04T03:28:19.372Z,16.85
2023-01-04T03:31:20.971Z,16.77
2023-01-04T03:34:12.092Z,15.90
2023-01-04T03:36:47.504Z,13.90
2023-01-04T03:39:39.756Z,15.90
2023-01-04T03:42:41.179Z,14.95
2023-01-04T03:45:36.391Z,14.15
2023-01-04T03:48:29.117Z,12.73
2023-01-04T03:51:17.191Z,13.60
2023-01-04T03:54:06.360Z,15.18
2023-01-04T03:56:37.476Z,12.85
2023-01-04T03:59:05.551Z,12.40
2023-01-04T04:01:33.304Z,12.50
2023-01-04T04:04:19.473Z,11.98
2023-01-04T04:07:05.883Z,10.82
2023-01-04T04:09:33.291Z,11.88
2023-01-04T04:12:00.871Z,12.68
2023-01-04T04:14:28.255Z,13.02
2023-01-04T04:16:55.626Z,11.60
2023-01-04T04:19:23.154Z,11.70
2023-01-04T04:21:50.560Z,10.27
2023-01-04T04:24:21.675Z,11.65
2023-01-04T04:26:49.091Z,10.18
2023-01-04T04:29:16.808Z,10.88
2023-01-04T04:31:44.491Z,11.48
2023-01-04T04:34:12.204Z,10.68
2023-01-04T04:36:39.778Z,11.02
2023-01-04T04:39:07.234Z,9.93
2023-01-04T04:41:41.547Z,10.25
2023-01-04T04:44:18.868Z,9.95
2023-01-04T04:46:47.884Z,9.70
2023-01-04T04:49:16.388Z,9.15
2023-01-04T04:51:44.800Z,8.30
2023-01-04T04:54:16.116Z,9.55
2023-01-04T04:56:43.509Z,8.85
2023-01-04T04:59:10.836Z,11.70
2023-01-04T05:01:38.336Z,7.90
2023-01-04T05:04:06.129Z,7.78
2023-01-04T05:06:34.238Z,7.93
2023-01-04T05:09:01.660Z,8.40
2023-01-04T05:11:47.730Z,8.40
2023-01-04T05:14:15.188Z,7.28
2023-01-04T05:16:42.638Z,7.60
2023-01-04T05:19:10.121Z,7.38
2023-01-04T05:21:37.464Z,7.78
2023-01-04T05:24:04.990Z,6.88
2023-01-04T05:26:32.392Z,7.90
2023-01-04T05:28:59.733Z,5.63
2023-01-04T05:31:27.152Z,7.20
2023-01-04T05:33:54.520Z,6.47
2023-01-04T05:36:21.886Z,7.75
2023-01-04T05:38:49.268Z,6.47
2023-01-04T05:41:35.111Z,5.88
2023-01-04T05:44:02.476Z,5.88
2023-01-04T05:46:29.934Z,5.25
2023-01-04T05:48:57.320Z,6.15
2023-01-04T05:51:24.686Z,7.13
2023-01-04T05:53:52.070Z,5.72
2023-01-04T05:56:19.458Z,5.32
2023-01-04T05:58:46.829Z,5.35
2023-01-04T06:01:14.212Z,5.55
2023-01-04T06:03:41.634Z,5.38
2023-01-04T06:06:09.085Z,6.45
2023-01-04T06:08:36.405Z,5.85
2023-01-04T06:11:04.692Z,5.88
2023-01-04T06:13:32.125Z,4.88
2023-01-04T06:15:59.455Z,5.95
2023-01-04T06:18:26.808Z,5.30
2023-01-04T06:20:54.171Z,5.00
2023-01-04T06:23:21.532Z,4.90
2023-01-04T06:25:48.904Z,4.47
2023-01-04T06:28:16.255Z,5.43
2023-01-04T06:30:43.634Z,5.47
2023-01-04T06:33:11.025Z,4.30
2023-01-04T06:35:38.517Z,5.18
2023-01-04T06:38:05.877Z,4.60
2023-01-04T06:40:33.203Z,4.70
2023-01-04T06:43:00.548Z,4.50
2023-01-04T06:45:27.884Z,4.57
2023-01-04T06:47:55.236Z,5.05
2023-01-04T06:50:22.642Z,5.05
2023-01-04T06:52:49.978Z,4.70
2023-01-04T06:55:17.497Z,5.13
2023-01-04T06:57:44.925Z,4.88
2023-01-04T07:00:13.182Z,7.35
2023-01-04T07:03:14.658Z,4.20
2023-01-04T07:05:27.893Z,4.28
2023-01-04T07:07:55.240Z,4.32
2023-01-04T07:10:22.627Z,4.22
2023-01-04T07:12:50.092Z,4.07
2023-01-04T07:15:39.104Z,4.13
2023-01-04T07:18:05.125Z,4.50
2023-01-04T07:20:32.658Z,4.25
2023-01-04T07:23:00.046Z,3.90
2023-01-04T07:25:27.430Z,4.70
2023-01-04T07:27:55.743Z,5.25
2023-01-04T07:30:24.218Z,4.03
2023-01-04T07:32:53.504Z,4.07
2023-01-04T07:35:21.969Z,4.45
2023-01-04T07:37:55.638Z,4.15
2023-01-04T07:40:25.580Z,4.40
2023-01-04T07:42:57.529Z,4.40
2023-01-04T07:45:26.379Z,7.35
2023-01-04T07:47:54.145Z,5.15
2023-01-04T07:50:21.544Z,4.10
2023-01-04T07:52:48.947Z,3.95
2023-01-04T07:55:16.440Z,4.65
2023-01-04T07:57:43.823Z,4.90
2023-01-04T08:00:11.879Z,5.05
2023-01-04T08:02:39.406Z,4.45
2023-01-04T08:05:07.119Z,4.40
2023-01-04T08:07:34.611Z,5.28
2023-01-04T08:10:02.032Z,5.90
2023-01-04T08:12:29.543Z,5.90
2023-01-04T08:14:56.903Z,4.35
2023-01-04T08:17:24.391Z,4.43
2023-01-04T08:19:51.883Z,4.63
2023-01-04T08:22:19.243Z,9.70
2023-01-04T08:24:46.604Z,6.45
2023-01-04T08:27:14.013Z,6.22
2023-01-04T08:29:41.474Z,4.22
2023-01-04T08:32:08.821Z,7.75
2023-01-04T08:34:36.211Z,5.70
2023-01-04T08:37:03.597Z,4.88
2023-01-04T08:39:35.355Z,4.88
2023-01-04T08:42:14.358Z,8.88
2023-01-04T08:44:47.974Z,4.47
2023-01-04T08:47:15.318Z,5.07
2023-01-04T08:49:42.985Z,5.97
2023-01-04T08:52:11.778Z,5.55
2023-01-04T08:54:39.128Z,4.97
2023-01-04T08:57:06.625Z,6.55
2023-01-04T08:59:34.121Z,5.57
2023-01-04T09:02:05.689Z,6.47
2023-01-04T09:04:33.659Z,5.43
2023-01-04T09:07:01.130Z,4.70
2023-01-04T09:09:30.075Z,4.10
2023-01-04T09:11:57.618Z,5.88
2023-01-04T09:14:24.959Z,7.90
2023-01-04T09:16:52.278Z,4.18
2023-01-04T09:19:22.235Z,6.80
2023-01-04T09:21:50.780Z,5.30
2023-01-04T09:24:18.264Z,4.90
2023-01-04T09:26:47.540Z,5.28
2023-01-04T09:29:15.139Z,9.25
2023-01-04T09:31:46.687Z,11.25
2023-01-04T09:34:17.467Z,5.18
2023-01-04T09:36:47.321Z,4.97
2023-01-04T09:39:22.390Z,5.60
2023-01-04T09:42:04.018Z,4.87
2023-01-04T09:45:12.311Z,4.70
2023-01-04T09:47:39.761Z,5.47
2023-01-04T09:50:28.837Z,5.00
2023-01-04T09:53:20.490Z,5.90
2023-01-04T09:55:52.832Z,4.60
2023-01-04T09:58:33.142Z,4.30
2023-01-04T10:01:07.403Z,4.97
2023-01-04T10:03:38.852Z,4.05
2023-01-04T10:06:10.163Z,4.57
2023-01-04T10:08:37.939Z,4.43
2023-01-04T10:11:20.581Z,5.07
2023-01-04T10:13:59.990Z,5.55
2023-01-04T10:17:15.327Z,4.53
2023-01-04T10:23:36.439Z,5.05
2023-01-04T10:26:13.300Z,4.35
2023-01-04T10:31:41.041Z,4.85
2023-01-04T10:34:22.688Z,3.63
2023-01-04T10:36:55.919Z,3.45
2023-01-04T10:39:32.528Z,3.40
2023-01-04T10:42:12.720Z,3.65
2023-01-04T10:44:52.251Z,5.15
2023-01-04T10:47:40.791Z,4.60
2023-01-04T10:50:25.452Z,3.72
2023-01-04T10:53:07.479Z,3.00
2023-01-04T10:56:24.211Z,3.63
2023-01-04T10:58:53.575Z,4.43
2023-01-04T11:01:33.635Z,3.22
2023-01-04T11:04:23.984Z,3.35
2023-01-04T11:07:02.952Z,2.95
2023-01-04T11:09:39.750Z,5.57
2023-01-04T11:12:11.895Z,2.95
2023-01-04T11:14:39.268Z,3.05
2023-01-04T11:17:10.581Z,3.58
2023-01-04T11:19:39.061Z,3.42
2023-01-04T11:22:24.404Z,2.83
2023-01-04T11:27:51.304Z,2.53
2023-01-04T11:30:28.650Z,3.78
2023-01-04T11:33:03.021Z,2.85
2023-01-04T11:35:45.215Z,2.50
2023-01-04T11:38:14.053Z,2.67
2023-01-04T11:40:42.755Z,3.35
2023-01-04T11:43:19.873Z,3.63
2023-01-04T11:46:16.388Z,2.53
2023-01-04T11:48:45.404Z,3.10
2023-01-04T11:51:28.778Z,2.97
2023-01-04T11:54:14.326Z,3.00
2023-01-04T11:56:59.991Z,2.90
2023-01-04T11:59:27.953Z,2.45
2023-01-04T12:02:50.575Z,2.35
2023-01-04T12:05:26.152Z,3.75
2023-01-04T12:07:56.956Z,2.90
2023-01-04T12:10:27.596Z,2.45
2023-01-04T12:12:56.651Z,2.30
2023-01-04T12:15:32.812Z,2.70
2023-01-04T12:18:18.007Z,2.50
2023-01-04T12:20:45.666Z,2.50
2023-01-04T12:23:13.914Z,2.38
2023-01-04T12:25:45.931Z,3.10
2023-01-04T12:28:44.867Z,2.60
2023-01-04T12:31:21.910Z,2.90
2023-01-04T12:33:56.141Z,2.40
2023-01-04T12:36:38.861Z,2.83
2023-01-04T12:39:12.329Z,3.08
2023-01-04T12:41:39.837Z,2.33
2023-01-04T12:44:47.951Z,9.60
2023-01-04T12:47:37.334Z,2.25
2023-01-04T12:50:04.874Z,2.42
2023-01-04T12:52:43.020Z,2.22
2023-01-04T12:55:19.521Z,2.38
2023-01-04T12:57:46.867Z,2.10
2023-01-04T13:00:16.105Z,2.50
2023-01-04T13:03:24.922Z,2.22
2023-01-04T13:06:01.348Z,2.25
2023-01-04T13:08:33.252Z,2.30
2023-01-04T13:11:04.193Z,2.40
2023-01-04T13:13:34.595Z,2.75
2023-01-04T13:16:13.940Z,1.95
2023-01-04T13:18:47.969Z,2.25
2023-01-04T13:21:27.784Z,2.08
2023-01-04T13:23:58.296Z,2.30
2023-01-04T13:26:28.857Z,2.67
2023-01-04T13:29:23.961Z,2.17
2023-01-04T13:32:09.548Z,2.88
2023-01-04T13:34:59.852Z,3.95
2023-01-04T13:37:31.550Z,2.63
2023-01-04T13:40:21.881Z,2.85
2023-01-04T13:43:06.139Z,2.50
2023-01-04T13:46:05.583Z,2.70
2023-01-04T13:48:39.817Z,2.17
2023-01-04T13:51:36.319Z,1.95
2023-01-04T13:54:16.987Z,3.63
2023-01-04T13:56:48.249Z,2.10
2023-01-04T13:59:20.504Z,2.38
2023-01-04T14:01:51.413Z,3.33
2023-01-04T14:04:27.559Z,2.15
2023-01-04T14:06:58.043Z,2.17
2023-01-04T14:09:32.744Z,2.10
2023-01-04T14:12:08.784Z,3.30
2023-01-04T14:14:55.668Z,3.85
2023-01-04T14:17:48.567Z,3.47
2023-01-04T14:20:16.126Z,2.35
2023-01-04T14:22:46.170Z,2.10
2023-01-04T14:25:35.725Z,2.50
2023-01-04T14:28:22.149Z,2.78
2023-01-04T14:30:56.340Z,2.30
2023-01-04T14:33:32.635Z,4.55
2023-01-04T14:36:14.929Z,2.28
2023-01-04T14:38:51.479Z,1.65
2023-01-04T14:41:29.849Z,3.38
2023-01-04T14:44:00.189Z,2.58
2023-01-04T14:46:29.544Z,1.88
2023-01-04T14:48:57.182Z,2.10
2023-01-04T14:51:34.314Z,3.70
2023-01-04T14:54:01.716Z,2.30
2023-01-04T14:56:29.089Z,2.40
2023-01-04T14:58:56.451Z,2.70
2023-01-04T15:01:24.056Z,2.67
2023-01-04T15:03:51.605Z,3.28
2023-01-04T15:06:19.296Z,2.92
2023-01-04T15:08:46.706Z,3.63
2023-01-04T15:11:15.632Z,3.97
2023-01-04T15:13:44.328Z,2.67
2023-01-04T15:16:14.025Z,2.67
2023-01-04T15:18:41.599Z,2.35
2023-01-04T15:21:09.696Z,3.13
2023-01-04T15:23:37.363Z,4.72
2023-01-04T15:26:06.693Z,3.05
2023-01-04T15:28:34.486Z,4.05
2023-01-04T15:31:14.819Z,3.00
2023-01-04T15:33:42.627Z,4.25
2023-01-04T15:36:23.736Z,3.58
2023-01-04T15:38:55.351Z,3.88
2023-01-04T15:41:41.370Z,5.75
2023-01-04T15:44:11.320Z,5.25
2023-01-04T15:46:39.214Z,4.18
2023-01-04T15:49:08.335Z,5.13
2023-01-04T15:51:39.340Z,5.50
2023-01-04T15:54:06.672Z,6.72
2023-01-04T15:56:34.021Z,7.88
2023-01-04T15:59:01.322Z,9.02
2023-01-04T16:01:29.187Z,15.40
2023-01-04T16:03:56.618Z,22.35
2023-01-04T16:06:24.218Z,26.50
2023-01-04T16:08:52.953Z,27.25
2023-01-04T16:11:23.198Z,25.00
2023-01-04T16:13:52.478Z,25.63
2023-01-04T16:16:22.027Z,28.10
2023-01-04T16:18:51.842Z,30.42
2023-01-04T16:21:27.204Z,29.50
2023-01-04T16:24:04.550Z,27.65
2023-01-04T16:26:37.352Z,29.08
2023-01-04T16:29:05.375Z,32.08
2023-01-04T16:31:34.280Z,32.90
2023-01-04T16:34:01.906Z,33.78
2023-01-04T16:36:29.641Z,36.78
2023-01-04T16:38:57.438Z,38.28
2023-01-04T16:41:25.171Z,36.90
2023-01-04T16:43:55.534Z,36.58
2023-01-04T16:46:31.202Z,40.35
2023-01-04T16:49:00.126Z,40.28
2023-01-04T16:51:29.777Z,40.38
2023-01-04T16:53:57.423Z,40.63
2023-01-04T16:56:25.322Z,42.30
2023-01-04T16:58:52.868Z,39.22
2023-01-04T17:01:26.745Z,41.65
2023-01-04T17:03:57.081Z,43.25
2023-01-04T17:06:26.869Z,41.35
2023-01-04T17:08:56.303Z,43.92
2023-01-04T17:14:13.975Z,49.47
2023-01-04T17:16:42.216Z,44.95
2023-01-04T17:19:09.613Z,44.20
2023-01-04T17:21:37.003Z,47.65
2023-01-04T17:24:04.585Z,48.15
2023-01-04T17:26:32.893Z,49.20
2023-01-04T17:29:01.610Z,45.45
2023-01-04T17:31:34.951Z,49.05
2023-01-04T17:34:03.116Z,52.00
2023-01-04T17:36:30.566Z,47.78
2023-01-04T17:39:01.791Z,49.05
2023-01-04T17:41:30.392Z,51.47
2023-01-04T17:44:03.723Z,48.78
2023-01-04T17:46:34.288Z,49.45
2023-01-04T17:51:53.254Z,48.90
2023-01-04T17:54:21.285Z,47.70
2023-01-04T17:56:48.663Z,46.10
2023-01-04T17:59:16.072Z,46.20
2023-01-04T18:01:43.540Z,46.10
2023-01-04T18:04:11.398Z,42.83
2023-01-04T18:06:39.657Z,41.40
2023-01-04T18:09:09.109Z,41.97
2023-01-04T18:11:37.590Z,44.55
2023-01-04T18:14:09.639Z,43.28
2023-01-04T18:16:56.799Z,44.38
2023-01-04T18:19:26.447Z,43.85
2023-01-04T18:21:54.301Z,43.85
2023-01-04T18:24:38.712Z,40.08
2023-01-04T18:27:27.439Z,44.20
2023-01-04T18:29:55.946Z,40.80
2023-01-04T18:32:25.318Z,40.08
2023-01-04T18:34:53.124Z,41.15
2023-01-04T18:37:21.329Z,41.95
2023-01-04T18:39:49.012Z,42.53
2023-01-04T18:42:17.020Z,39.53
2023-01-04T18:44:48.476Z,40.30
2023-01-04T18:47:19.952Z,40.67
2023-01-04T18:49:48.892Z,38.17
2023-01-04T18:52:17.663Z,39.28
2023-01-04T18:54:45.249Z,40.80
2023-01-04T18:57:12.649Z,40.72
2023-01-04T18:59:40.780Z,41.83
2023-01-04T19:02:10.665Z,40.13
2023-01-04T19:04:38.207Z,37.22
2023-01-04T19:07:05.581Z,39.13
2023-01-04T19:09:33.252Z,39.15
2023-01-04T19:12:01.184Z,35.30
2023-01-04T19:14:28.583Z,36.85
2023-01-04T19:16:55.983Z,36.97
2023-01-04T19:19:23.401Z,36.85
2023-01-04T19:21:50.786Z,35.65
2023-01-04T19:24:18.286Z,35.13
2023-01-04T19:26:45.621Z,38.05
2023-01-04T19:29:12.956Z,32.15
2023-01-04T19:31:40.374Z,33.20
2023-01-04T19:34:11.784Z,30.25
2023-01-04T19:36:39.227Z,33.25
2023-01-04T19:39:09.462Z,32.97
2023-01-04T19:41:38.166Z,31.10
2023-01-04T19:44:09.082Z,29.95
2023-01-04T19:46:40.349Z,31.45
2023-01-04T19:49:14.731Z,31.90
2023-01-04T19:51:47.237Z,31.83
2023-01-04T19:54:19.855Z,30.20
2023-01-04T19:56:50.682Z,29.73
2023-01-04T19:59:18.025Z,30.65
2023-01-04T20:01:45.529Z,30.05
2023-01-04T20:04:13.933Z,31.05
2023-01-04T20:06:41.355Z,27.25
2023-01-04T20:09:08.702Z,30.85
2023-01-04T20:11:36.313Z,27.20
2023-01-04T20:14:03.695Z,28.23
2023-01-04T20:16:31.147Z,29.42
2023-01-04T20:18:58.839Z,28.55
2023-01-04T20:21:26.238Z,26.85
2023-01-04T20:23:53.635Z,28.00
2023-01-04T20:26:20.990Z,27.48
2023-01-04T20:28:48.745Z,28.42
2023-01-04T20:31:18.673Z,27.40
2023-01-04T20:33:47.660Z,24.98
2023-01-04T20:36:21.310Z,23.45
2023-01-04T20:38:49.557Z,26.00
2023-01-04T20:41:20.600Z,24.45
2023-01-04T20:43:48.606Z,25.17
2023-01-04T20:46:22.699Z,24.48
2023-01-04T20:48:50.393Z,22.83
2023-01-04T20:51:20.982Z,24.25
2023-01-04T20:53:48.851Z,23.73
2023-01-04T20:56:22.056Z,25.77
2023-01-04T20:58:50.332Z,29.25
2023-01-04T21:01:19.900Z,24.25
2023-01-04T21:03:47.560Z,22.77
2023-01-04T21:06:17.274Z,24.58
2023-01-04T21:08:45.852Z,23.20
2023-01-04T21:11:14.169Z,23.83
2023-01-04T21:13:42.320Z,22.33
2023-01-04T21:16:11.147Z,23.15
2023-01-04T21:18:38.659Z,28.38
2023-01-04T21:21:08.057Z,24.88
2023-01-04T21:23:36.533Z,24.95
2023-01-04T21:26:08.654Z,23.40
2023-01-04T21:28:36.331Z,20.60
2023-01-04T21:31:13.055Z,19.73
2023-01-04T21:33:40.543Z,20.75
2023-01-04T21:36:13.679Z,21.67
2023-01-04T21:38:41.025Z,20.13
2023-01-04T21:41:14.619Z,20.92
2023-01-04T21:43:43.910Z,24.15
2023-01-04T21:46:15.409Z,23.90
2023-01-04T21:48:46.253Z,19.80
2023-01-04T21:51:14.762Z,19.88
2023-01-04T21:53:42.734Z,17.55
2023-01-04T21:56:15.417Z,19.60
2023-01-04T21:58:43.870Z,18.90
2023-01-04T22:01:19.443Z,19.17
2023-01-04T22:03:47.367Z,19.88
2023-01-04T22:06:15.343Z,20.67
2023-01-04T22:08:43.593Z,20.15
2023-01-04T22:11:12.155Z,19.00
2023-01-04T22:13:39.633Z,25.05
2023-01-04T22:16:09.912Z,18.02
2023-01-04T22:18:38.419Z,19.77
2023-01-04T22:21:10.329Z,18.65
2023-01-04T22:23:38.121Z,20.02
2023-01-04T22:26:05.943Z,18.27
2023-01-04T22:28:37.036Z,22.23
2023-01-04T22:31:07.022Z,20.67
2023-01-04T22:33:36.118Z,17.88
2023-01-04T22:36:08.812Z,22.25
2023-01-04T22:38:38.093Z,19.30
2023-01-04T22:41:07.697Z,20.38
2023-01-04T22:43:37.070Z,18.38
2023-01-04T22:46:07.371Z,18.55
2023-01-04T22:48:35.844Z,18.85
2023-01-04T22:51:07.918Z,18.25
2023-01-04T22:53:35.425Z,18.75
2023-01-04T22:56:23.483Z,20.25
2023-01-04T22:58:54.655Z,19.17
2023-01-04T23:01:25.014Z,17.33
2023-01-04T23:03:52.856Z,20.35
2023-01-04T23:06:21.467Z,18.52
2023-01-04T23:08:55.053Z,20.65
2023-01-04T23:11:22.884Z,19.67
2023-01-04T23:13:51.328Z,17.85
2023-01-04T23:16:19.356Z,19.00
2023-01-04T23:18:47.011Z,18.83
2023-01-04T23:21:15.356Z,20.05
2023-01-04T23:23:43.883Z,21.30
2023-01-04T23:26:17.093Z,19.88
2023-01-04T23:28:45.854Z,19.58
2023-01-04T23:31:16.726Z,18.65
2023-01-04T23:33:44.428Z,21.15
2023-01-04T23:36:17.813Z,20.30
2023-01-04T23:38:50.935Z,21.33
2023-01-04T23:41:18.906Z,21.05
2023-01-04T23:43:46.512Z,19.95
2023-01-04T23:46:18.023Z,21.67
2023-01-04T23:48:45.439Z,20.27
2023-01-04T23:51:14.744Z,19.95
2023-01-04T23:53:42.086Z,19.63
2023-01-04T23:56:15.612Z,19.85
2023-01-04T23:58:43.122Z,21.83
